Sign in

Links

Info

Aviation weather

METAR KDAB 210353Z 09007KT 10SM SCT055 21/14 A3012 RMK AO2 SLP198 T02110139 $

TAF KDAB 202337Z 2100/2124 09011KT P6SM BKN040 BKN250 FM210500 08005KT P6SM SCT050 BKN100 FM211400 09007KT P6SM VCSH BKN050 OVC080 FM211700 11010KT 5SM -RA BKN035 OVC050 TEMPO 2118/2122 3SM RA BR BKN020 OVC040 FM212300 08005KT P6SM VCSH SCT040 OVC060

Aviation weather from ADDS. Re-check weather before flight.

-